^^
Station Historical Data
Daily Summary for April 5, 2017 Units:  English    Metric   Both
« Previous Day
Next Day »
Daily Weekly Monthly Yearly Custom
  High: Low: Average:
Temperature: 60.9 °F 43.0 °F 49.7 °F
Dew Point: 48.3 °F 41.3 °F 43.6 °F
Humidity: 98% 53% 81%
Wind Speed: 5.0mph 0.0mph 0.6mph
Wind Gust: 9.0mph - -
Wind- - WSW
Pressure: 30.01 in 29.76 in -
Precipitation: 0.00 in    
Historical Graphs
 
 
Tabular Data for April 5, 2017
Time Temperature Dew Point Pressure Wind Wind Speed Wind Gust Humidity Rainfall Rate (Hourly) Conditions
00:00 44.7 °F 43.6 °F 29.76 in Calm     96% 0.00 in -DZ
00:15 44.8 °F 43.7 °F 29.76 in Calm     96% 0.00 in -DZ
00:30 44.9 °F 43.8 °F 29.76 in Calm   1.0 mph 96% 0.00 in -DZ
00:45 45.0 °F 44.2 °F 29.76 in Calm   1.0 mph 97% 0.00 in -DZ
01:00 44.8 °F 43.7 °F 29.76 in Calm   2.0 mph 96% 0.00 in -DZ
02:15 44.1 °F 43.3 °F 29.77 in Calm   1.0 mph 97% 0.00 in -DZ
02:30 43.9 °F 43.1 °F 29.77 in Calm     97% 0.00 in -DZ
02:45 43.9 °F 43.1 °F 29.77 in Calm     97% 0.00 in -DZ
03:00 43.6 °F 42.8 °F 29.77 in Calm   1.0 mph 97% 0.00 in -DZ
03:15 43.3 °F 42.5 °F 29.78 in Calm   1.0 mph 97% 0.00 in CLR
03:30 43.4 °F 42.6 °F 29.78 in Calm   1.0 mph 97% 0.00 in CLR
03:45 43.3 °F 42.5 °F 29.78 in Calm   1.0 mph 97% 0.00 in CLR
04:00 43.1 °F 42.3 °F 29.79 in Calm   1.0 mph 97% 0.00 in CLR
04:30 43.4 °F 42.6 °F 29.79 in Calm     97% 0.00 in CLR
04:45 43.5 °F 42.7 °F 29.80 in Calm   1.0 mph 97% 0.00 in CLR
05:00 43.4 °F 42.6 °F 29.80 in Calm   1.0 mph 97% 0.00 in CLR
05:15 43.5 °F 42.7 °F 29.81 in Calm   1.0 mph 97% 0.00 in CLR
05:30 43.3 °F 42.5 °F 29.82 in SSW 1.0 mph 3.0 mph 97% 0.00 in CLR
05:45 43.1 °F 42.3 °F 29.83 in Calm   4.0 mph 97% 0.00 in CLR
06:00 43.0 °F 42.2 °F 29.83 in Calm   1.0 mph 97% 0.00 in CLR
06:15 43.1 °F 42.3 °F 29.84 in Calm     97% 0.00 in CLR
06:30 43.0 °F 42.2 °F 29.85 in Calm   2.0 mph 97% 0.00 in CLR
06:45 43.0 °F 42.2 °F 29.86 in Calm   1.0 mph 97% 0.00 in CLR
07:00 43.1 °F 42.3 °F 29.88 in Calm   1.0 mph 97% 0.00 in CLR
07:15 43.2 °F 42.4 °F 29.89 in Calm     97% 0.00 in CLR
07:30 43.4 °F 42.9 °F 29.90 in Calm   1.0 mph 98% 0.00 in CLR
07:45 43.9 °F 43.4 °F 29.90 in Calm     98% 0.00 in CLR
08:00 44.4 °F 43.9 °F 29.91 in Calm   1.0 mph 98% 0.00 in CLR
08:15 44.3 °F 43.8 °F 29.91 in Calm   1.0 mph 98% 0.00 in CLR
08:30 44.7 °F 44.2 °F 29.92 in Calm   1.0 mph 98% 0.00 in CLR
08:45 45.0 °F 44.5 °F 29.92 in Calm   1.0 mph 98% 0.00 in CLR
09:00 45.8 °F 45.3 °F 29.93 in Calm   1.0 mph 98% 0.00 in CLR
09:15 48.7 °F 48.1 °F 29.93 in Calm   1.0 mph 98% 0.00 in BKN
09:30 49.1 °F 48.3 °F 29.93 in WNW 1.0 mph 5.0 mph 97% 0.00 in BKN
09:45 48.9 °F 47.5 °F 29.93 in West 2.0 mph 6.0 mph 95% 0.00 in BKN
10:00 48.7 °F 47.1 °F 29.93 in Calm   3.0 mph 94% 0.00 in BKN
10:15 49.4 °F 46.6 °F 29.94 in NNW 1.0 mph 8.0 mph 90% 0.00 in BKN
10:30 49.9 °F 44.6 °F 29.95 in NW 1.0 mph 7.0 mph 82% 0.00 in BKN
10:45 50.4 °F 44.1 °F 29.96 in WNW 1.0 mph 3.0 mph 79% 0.00 in BKN
11:00 51.0 °F 43.7 °F 29.95 in Calm   2.0 mph 76% 0.00 in BKN
11:15 51.7 °F 43.6 °F 29.95 in WNW 1.0 mph 2.0 mph 74% 0.00 in BKN
11:30 52.6 °F 43.5 °F 29.95 in WNW 1.0 mph 4.0 mph 71% 0.00 in BKN
11:45 53.3 °F 43.8 °F 29.95 in Calm   5.0 mph 70% 0.00 in BKN
12:00 53.5 °F 43.6 °F 29.94 in Calm   4.0 mph 69% 0.00 in BKN
12:15 54.2 °F 43.0 °F 29.95 in WNW 1.0 mph 4.0 mph 66% 0.00 in BKN
12:30 54.9 °F 44.1 °F 29.94 in Calm   5.0 mph 67% 0.00 in BKN
12:45 54.3 °F 42.8 °F 29.95 in WNW 2.0 mph 6.0 mph 65% 0.00 in BKN
13:00 54.1 °F 42.2 °F 29.96 in WNW 2.0 mph 6.0 mph 64% 0.00 in BKN
13:15 55.1 °F 43.1 °F 29.95 in Calm   4.0 mph 64% 0.00 in OVC
13:30 55.5 °F 42.7 °F 29.96 in Calm   6.0 mph 62% 0.00 in OVC
13:45 55.7 °F 42.5 °F 29.96 in WSW 1.0 mph 7.0 mph 61% 0.00 in OVC
14:00 55.5 °F 42.7 °F 29.96 in NW 1.0 mph 4.0 mph 62% 0.00 in OVC
14:15 56.6 °F 43.7 °F 29.96 in NW 1.0 mph 6.0 mph 62% 0.00 in BKN
14:30 57.7 °F 44.3 °F 29.95 in NW 2.0 mph 6.0 mph 61% 0.00 in BKN
14:45 57.4 °F 43.2 °F 29.95 in WNW 1.0 mph 6.0 mph 59% 0.00 in BKN
15:00 58.2 °F 43.5 °F 29.94 in NNE 2.0 mph 5.0 mph 58% 0.00 in BKN
15:15 57.3 °F 43.5 °F 29.94 in Calm   6.0 mph 60% 0.00 in BKN
15:30 58.5 °F 43.8 °F 29.94 in NNW 3.0 mph 6.0 mph 58% 0.00 in BKN
15:45 58.0 °F 42.8 °F 29.94 in NNW 2.0 mph 7.0 mph 57% 0.00 in BKN
16:00 58.6 °F 43.4 °F 29.93 in Calm   5.0 mph 57% 0.00 in BKN
16:15 59.0 °F 43.3 °F 29.95 in West 5.0 mph 9.0 mph 56% 0.00 in SCT
16:30 59.0 °F 42.8 °F 29.95 in WSW 2.0 mph 6.0 mph 55% 0.00 in SCT
16:45 59.6 °F 42.9 °F 29.94 in West 1.0 mph 4.0 mph 54% 0.00 in SCT
17:00 60.9 °F 43.6 °F 29.95 in NNW 2.0 mph 4.0 mph 53% 0.00 in SCT
17:15 60.6 °F 43.9 °F 29.95 in ESE 1.0 mph 4.0 mph 54% 0.00 in FEW
17:45 59.9 °F 46.0 °F 29.96 in Calm   4.0 mph 60% 0.00 in FEW
18:00 58.7 °F 45.3 °F 29.96 in NE 2.0 mph 7.0 mph 61% 0.00 in FEW
18:15 57.2 °F 45.6 °F 29.97 in East 1.0 mph 4.0 mph 65% 0.00 in FEW
18:30 56.2 °F 45.0 °F 29.97 in SW 1.0 mph 4.0 mph 66% 0.00 in FEW
18:45 55.3 °F 44.5 °F 29.97 in Calm   4.0 mph 67% 0.00 in FEW
19:00 54.5 °F 44.5 °F 29.97 in ESE 1.0 mph 5.0 mph 69% 0.00 in FEW
19:15 53.7 °F 44.1 °F 29.97 in NE 1.0 mph 4.0 mph 70% 0.00 in FEW
19:30 52.9 °F 43.8 °F 29.97 in Calm   3.0 mph 71% 0.00 in FEW
19:45 52.1 °F 43.7 °F 29.97 in Calm   3.0 mph 73% 0.00 in FEW
20:00 51.6 °F 43.6 °F 29.97 in Calm   5.0 mph 74% 0.00 in FEW
20:15 51.0 °F 43.7 °F 29.96 in East 1.0 mph 6.0 mph 76% 0.00 in CLR
20:30 50.6 °F 44.0 °F 29.98 in WSW 2.0 mph 6.0 mph 78% 0.00 in CLR
20:45 50.0 °F 44.0 °F 29.99 in Calm   7.0 mph 80% 0.00 in CLR
21:00 49.4 °F 43.8 °F 29.99 in NW 1.0 mph 3.0 mph 81% 0.00 in CLR
21:15 48.8 °F 43.9 °F 29.99 in Calm   7.0 mph 83% 0.00 in CLR
21:30 48.2 °F 43.6 °F 30.00 in SE 2.0 mph 8.0 mph 84% 0.00 in CLR
21:45 47.8 °F 43.5 °F 30.00 in Calm   7.0 mph 85% 0.00 in CLR
22:00 47.4 °F 43.1 °F 30.00 in Calm   4.0 mph 85% 0.00 in CLR
22:15 46.7 °F 43.0 °F 29.99 in NNW 1.0 mph 2.0 mph 87% 0.00 in CLR
22:30 46.3 °F 42.9 °F 29.98 in Calm   3.0 mph 88% 0.00 in CLR
22:45 45.8 °F 42.4 °F 29.98 in Calm   4.0 mph 88% 0.00 in CLR
23:00 45.4 °F 42.3 °F 29.98 in North 1.0 mph 4.0 mph 89% 0.00 in CLR
23:15 45.1 °F 42.1 °F 29.99 in Calm   9.0 mph 89% 0.00 in CLR
23:30 44.8 °F 41.8 °F 29.99 in NE 1.0 mph 5.0 mph 89% 0.00 in CLR
23:45 44.3 °F 41.3 °F 30.01 in South 1.0 mph 6.0 mph 89% 0.00 in CLR
TarryTown NY Weather
Compliments of Weather Underground - 1.5 mb